Time;durP1;ratioP1;P1;durP2;ratioP2;P2;SDS_P1;SDS_P2;PMS_P1;PMS_P2;Temp;Humidity;BMP_temperature;BMP_pressure;BME280_temperature;BME280_humidity;BME280_pressure;Samples;Min_cycle;Max_cycle;Signal;HPM_P1;HPM_P2
2023/09/21 00:01:03;;;;;;;15.80;3.55;;;34.10;34.70;;;;;;5064859;28;20024;-63
2023/09/21 00:03:30;;;;;;;14.20;3.50;;;34.10;35.10;;;;;;5068382;28;20476;-59
2023/09/21 00:05:57;;;;;;;22.17;3.70;;;34.10;35.30;;;;;;5060145;28;20024;-64
2023/09/21 00:08:24;;;;;;;15.63;3.67;;;34.00;34.90;;;;;;5063542;28;20021;-60
2023/09/21 00:10:54;;;;;;;20.25;3.35;;;34.00;35.20;;;;;;5059990;28;20013;-60
2023/09/21 00:13:27;;;;;;;17.92;3.08;;;33.90;35.10;;;;;;5066028;28;20032;-63
2023/09/21 00:15:59;;;;;;;20.92;3.00;;;33.70;35.00;;;;;;5067414;28;20499;-61
2023/09/21 00:18:27;;;;;;;25.75;3.67;;;33.50;35.50;;;;;;5064924;28;20172;-61
2023/09/21 00:20:56;;;;;;;27.98;3.35;;;33.50;35.90;;;;;;5066666;28;20020;-61
2023/09/21 00:23:26;;;;;;;28.10;4.18;;;33.50;35.40;;;;;;5065910;28;20016;-63
2023/09/21 00:25:57;;;;;;;25.48;4.30;;;33.40;35.60;;;;;;5067440;28;20545;-65
2023/09/21 00:28:28;;;;;;;15.27;3.75;;;33.40;35.80;;;;;;5064970;28;20032;-62
2023/09/21 00:30:57;;;;;;;17.52;3.80;;;33.30;35.80;;;;;;5067761;28;20100;-63
2023/09/21 00:33:28;;;;;;;15.98;3.50;;;33.30;35.50;;;;;;5066725;28;20024;-63
2023/09/21 00:35:59;;;;;;;8.15;3.10;;;33.30;35.00;;;;;;5067455;28;20008;-62
2023/09/21 00:38:26;;;;;;;25.33;3.80;;;33.10;34.10;;;;;;5059344;28;20008;-59
2023/09/21 00:41:04;;;;;;;19.98;3.80;;;33.10;35.30;;;;;;5063903;28;20472;-61
2023/09/21 00:43:30;;;;;;;18.45;3.42;;;32.90;35.40;;;;;;5065412;28;20076;-62
2023/09/21 00:46:01;;;;;;;20.67;3.35;;;32.80;34.30;;;;;;5067415;28;20515;-63
2023/09/21 00:48:33;;;;;;;27.65;3.83;;;32.80;34.00;;;;;;5067790;28;20020;-62
2023/09/21 00:51:05;;;;;;;19.23;3.40;;;32.70;33.90;;;;;;5062727;28;20021;-62
2023/09/21 00:53:33;;;;;;;19.00;3.95;;;32.60;34.70;;;;;;5066139;28;20143;-61
2023/09/21 00:56:05;;;;;;;10.38;3.25;;;32.50;34.90;;;;;;5067082;28;20059;-61
2023/09/21 00:58:33;;;;;;;10.13;3.13;;;32.50;35.10;;;;;;5065191;28;20027;-62
2023/09/21 01:01:00;;;;;;;11.48;2.97;;;32.50;35.30;;;;;;5062560;28;20029;-62
2023/09/21 01:03:28;;;;;;;21.55;4.03;;;32.50;35.40;;;;;;5067848;28;20038;-63
2023/09/21 01:05:55;;;;;;;16.15;3.60;;;32.50;35.40;;;;;;5067310;28;20484;-61
2023/09/21 01:08:28;;;;;;;20.20;3.80;;;32.40;36.10;;;;;;5066141;28;20396;-61
2023/09/21 01:10:56;;;;;;;19.58;3.78;;;32.20;36.20;;;;;;5061467;28;20017;-62
2023/09/21 01:13:25;;;;;;;22.83;4.10;;;32.20;36.20;;;;;;5066037;28;20162;-61
2023/09/21 01:16:06;;;;;;;10.90;4.32;;;32.00;36.60;;;;;;5066639;28;20028;-62
2023/09/21 01:18:33;;;;;;;18.58;4.20;;;32.00;36.80;;;;;;5063707;28;20023;-62
2023/09/21 01:21:01;;;;;;;19.40;4.75;;;31.90;36.90;;;;;;5060022;28;20009;-61
2023/09/21 01:23:49;;;;;;;17.15;4.72;;;31.80;37.30;;;;;;5066059;28;20020;-58
2023/09/21 01:26:16;;;;;;;31.92;5.32;;;31.70;37.20;;;;;;5065719;28;20033;-60
2023/09/21 01:28:47;;;;;;;14.70;4.55;;;31.70;37.10;;;;;;5068531;28;20020;-57
2023/09/21 01:31:14;;;;;;;18.83;4.40;;;31.60;36.70;;;;;;5070772;28;20016;-59
2023/09/21 01:33:47;;;;;;;15.57;4.63;;;31.60;37.20;;;;;;5069675;28;20396;-57
2023/09/21 01:36:15;;;;;;;13.45;4.03;;;31.50;37.30;;;;;;5061632;28;20415;-60
2023/09/21 01:38:45;;;;;;;18.38;4.55;;;31.40;37.70;;;;;;5069619;28;20016;-60
2023/09/21 01:41:18;;;;;;;16.98;4.53;;;31.30;37.90;;;;;;5071004;28;20017;-60
2023/09/21 01:43:45;;;;;;;21.75;4.90;;;31.20;38.00;;;;;;5069116;28;20020;-58
2023/09/21 01:46:12;;;;;;;12.88;5.00;;;31.20;38.30;;;;;;5062562;28;20016;-59
2023/09/21 01:48:39;;;;;;;14.95;4.55;;;31.10;38.60;;;;;;5062185;28;20044;-62
2023/09/21 01:51:05;;;;;;;13.95;4.72;;;31.00;39.00;;;;;;5067329;28;20016;-60
2023/09/21 01:53:32;;;;;;;16.67;4.90;;;31.00;39.70;;;;;;5069498;28;20551;-56
2023/09/21 01:55:59;;;;;;;13.00;4.60;;;30.90;39.70;;;;;;5070032;28;20134;-58
2023/09/21 01:58:25;;;;;;;19.02;5.00;;;30.80;39.60;;;;;;5065668;28;20037;-61
2023/09/21 02:00:52;;;;;;;16.38;4.72;;;30.70;39.70;;;;;;5067650;28;20021;-57
2023/09/21 02:03:28;;;;;;;17.15;4.82;;;30.70;39.60;;;;;;5064590;28;20027;-61
2023/09/21 02:05:57;;;;;;;20.65;5.70;;;30.60;39.60;;;;;;5054920;28;21454;-58
2023/09/21 02:08:24;;;;;;;15.55;5.32;;;30.50;39.40;;;;;;5068203;28;20075;-60
2023/09/21 02:10:50;;;;;;;17.02;5.70;;;30.30;39.80;;;;;;5069362;28;20048;-62
2023/09/21 02:13:17;;;;;;;14.95;5.13;;;30.20;40.10;;;;;;5062583;28;20075;-58
2023/09/21 02:15:49;;;;;;;14.25;5.25;;;30.10;40.50;;;;;;5062908;28;20008;-60
2023/09/21 02:18:15;;;;;;;13.88;5.68;;;30.10;40.60;;;;;;5069463;28;20016;-64
2023/09/21 02:20:44;;;;;;;17.08;5.40;;;30.00;40.60;;;;;;5063736;28;20044;-62
2023/09/21 02:23:12;;;;;;;11.82;5.05;;;29.90;40.60;;;;;;5065496;28;20055;-61
2023/09/21 02:25:40;;;;;;;12.90;5.55;;;29.90;40.50;;;;;;5068547;28;20031;-60
2023/09/21 02:28:11;;;;;;;16.15;5.53;;;29.90;40.40;;;;;;5066840;28;20469;-62
2023/09/21 02:30:47;;;;;;;17.15;5.30;;;29.90;40.10;;;;;;5058831;28;20094;-64
2023/09/21 02:33:17;;;;;;;17.52;5.57;;;29.90;39.90;;;;;;5065204;28;20037;-61
2023/09/21 02:35:46;;;;;;;13.02;4.70;;;29.80;39.90;;;;;;5069407;28;20307;-62
2023/09/21 02:38:13;;;;;;;19.77;5.85;;;29.70;40.30;;;;;;5063092;28;20017;-62
2023/09/21 02:40:40;;;;;;;18.35;6.55;;;29.70;40.20;;;;;;5066496;28;20020;-62
2023/09/21 02:43:10;;;;;;;16.63;5.53;;;29.60;40.50;;;;;;5066554;28;20016;-61
2023/09/21 02:45:37;;;;;;;17.27;5.70;;;29.60;40.60;;;;;;5056548;28;20560;-62
2023/09/21 02:48:04;;;;;;;23.33;5.47;;;29.40;40.50;;;;;;5063820;28;20438;-59
2023/09/21 02:50:31;;;;;;;12.90;5.40;;;29.20;41.60;;;;;;5066855;28;20021;-63
2023/09/21 02:53:02;;;;;;;36.30;6.60;;;29.10;40.80;;;;;;5063616;28;20025;-62
2023/09/21 02:55:29;;;;;;;14.68;5.80;;;29.10;40.80;;;;;;5059475;28;20105;-64
2023/09/21 02:58:04;;;;;;;13.60;5.25;;;29.00;40.90;;;;;;5063945;28;20039;-62
2023/09/21 03:00:39;;;;;;;14.52;5.50;;;29.00;41.00;;;;;;5065850;28;20021;-63
2023/09/21 03:03:07;;;;;;;16.00;6.10;;;29.00;41.80;;;;;;5056808;28;20047;-65
2023/09/21 03:05:36;;;;;;;18.45;6.22;;;28.90;42.60;;;;;;5059998;28;20028;-64
2023/09/21 03:08:05;;;;;;;20.88;6.03;;;28.90;43.60;;;;;;5065012;28;20476;-62
2023/09/21 03:10:33;;;;;;;14.90;6.03;;;28.70;43.30;;;;;;5066271;28;20121;-64
2023/09/21 03:12:59;;;;;;;17.67;6.05;;;28.60;43.80;;;;;;5060960;28;20168;-63
2023/09/21 03:15:26;;;;;;;15.65;6.20;;;28.50;44.10;;;;;;5064683;28;20042;-65
2023/09/21 03:17:53;;;;;;;20.17;6.47;;;28.40;44.40;;;;;;5054992;28;20169;-62
2023/09/21 03:20:34;;;;;;;15.82;5.78;;;28.30;44.70;;;;;;5064851;28;20076;-58
2023/09/21 03:23:05;;;;;;;14.55;5.32;;;28.30;44.10;;;;;;5063881;28;20046;-64
2023/09/21 03:25:33;;;;;;;22.70;6.28;;;28.20;44.10;;;;;;5061867;28;20037;-61
2023/09/21 03:28:12;;;;;;;21.27;5.53;;;28.20;43.70;;;;;;5063244;28;20035;-61
2023/09/21 03:30:50;;;;;;;24.60;6.15;;;28.00;44.30;;;;;;5062400;28;20058;-63
2023/09/21 03:33:22;;;;;;;14.25;6.47;;;28.00;44.50;;;;;;5062146;28;20148;-67
2023/09/21 03:35:48;;;;;;;18.70;6.72;;;28.00;45.30;;;;;;5065891;28;20093;-66
2023/09/21 03:38:18;;;;;;;16.08;6.85;;;27.80;44.90;;;;;;5065908;28;20052;-65
2023/09/21 03:40:45;;;;;;;22.30;6.70;;;27.80;45.30;;;;;;5061274;28;20054;-63
2023/09/21 03:43:12;;;;;;;19.88;7.10;;;27.70;45.80;;;;;;5062138;28;20063;-64
2023/09/21 03:45:40;;;;;;;20.95;6.38;;;27.60;45.70;;;;;;5058316;28;20040;-61
2023/09/21 03:48:08;;;;;;;27.67;7.80;;;27.50;46.00;;;;;;5067469;28;20034;-65
2023/09/21 03:50:36;;;;;;;23.95;7.10;;;27.50;46.40;;;;;;5056445;28;20059;-59
2023/09/21 03:53:04;;;;;;;23.00;7.10;;;27.40;46.40;;;;;;5064742;28;20054;-62
2023/09/21 03:55:34;;;;;;;33.13;7.63;;;27.40;46.70;;;;;;5066025;28;20064;-58
2023/09/21 03:58:02;;;;;;;28.98;7.10;;;27.30;46.80;;;;;;5059329;28;20424;-57
2023/09/21 04:03:10;;;;;;;36.33;8.02;;;27.20;47.10;;;;;;5067484;28;20595;-60
2023/09/21 04:05:40;;;;;;;21.83;7.25;;;27.10;47.40;;;;;;5061799;28;20044;-60
2023/09/21 04:08:07;;;;;;;25.55;7.65;;;27.00;46.90;;;;;;5062645;28;20106;-60
2023/09/21 04:10:33;;;;;;;22.33;7.30;;;27.10;47.20;;;;;;5066500;28;20447;-60
2023/09/21 04:13:00;;;;;;;30.65;8.30;;;27.10;47.00;;;;;;5059306;28;20047;-61
2023/09/21 04:15:29;;;;;;;26.92;7.38;;;27.10;46.90;;;;;;5056495;28;20157;-57
2023/09/21 04:17:57;;;;;;;32.92;7.50;;;27.10;46.90;;;;;;5060678;28;20044;-59
2023/09/21 04:20:23;;;;;;;26.98;8.20;;;27.00;47.00;;;;;;5065860;28;20075;-61
2023/09/21 04:22:55;;;;;;;23.00;7.57;;;27.00;47.20;;;;;;5058674;28;20122;-60
2023/09/21 04:25:22;;;;;;;17.92;6.95;;;26.90;47.50;;;;;;5062533;28;20058;-65
2023/09/21 04:27:50;;;;;;;26.40;7.30;;;26.70;47.40;;;;;;5062585;28;20102;-57
2023/09/21 04:30:21;;;;;;;26.65;7.38;;;26.60;47.70;;;;;;5063397;28;20051;-61
2023/09/21 04:32:49;;;;;;;25.08;7.57;;;26.60;47.50;;;;;;5067306;28;20049;-60
2023/09/21 04:35:18;;;;;;;23.42;7.45;;;26.60;47.40;;;;;;5066206;28;20104;-61
2023/09/21 04:37:50;;;;;;;31.85;7.20;;;26.60;47.20;;;;;;5065158;28;20045;-61
2023/09/21 04:40:17;;;;;;;19.45;6.68;;;26.60;46.90;;;;;;5064065;28;20512;-61
2023/09/21 04:42:46;;;;;;;26.75;7.15;;;26.70;46.90;;;;;;5052817;28;20057;-60
2023/09/21 04:45:14;;;;;;;22.00;6.72;;;26.70;46.60;;;;;;5065704;28;21512;-60
2023/09/21 04:47:52;;;;;;;30.40;7.10;;;26.70;46.20;;;;;;5046979;28;20053;-59
2023/09/21 04:50:19;;;;;;;24.13;6.70;;;26.70;45.80;;;;;;5056613;28;20111;-57
2023/09/21 04:52:49;;;;;;;33.22;7.32;;;26.70;45.70;;;;;;5060438;28;20142;-65
2023/09/21 04:55:16;;;;;;;39.45;7.07;;;26.80;45.10;;;;;;5064459;28;20044;-60
2023/09/21 04:57:43;;;;;;;46.75;6.75;;;26.80;44.50;;;;;;5061145;28;20101;-62
2023/09/21 05:00:13;;;;;;;40.17;6.90;;;26.70;44.00;;;;;;5063804;28;20525;-60
2023/09/21 05:02:40;;;;;;;32.80;7.22;;;26.70;44.00;;;;;;5067151;28;20099;-59
2023/09/21 05:05:07;;;;;;;20.98;5.93;;;26.70;44.00;;;;;;5069525;28;20051;-58
2023/09/21 05:07:36;;;;;;;22.67;6.22;;;26.70;44.70;;;;;;5065185;28;20058;-58
2023/09/21 05:10:06;;;;;;;28.02;5.32;;;26.70;44.00;;;;;;5066937;28;20424;-60
2023/09/21 05:12:34;;;;;;;22.00;5.60;;;26.80;43.70;;;;;;5070056;28;20051;-60
2023/09/21 05:15:00;;;;;;;25.90;5.97;;;26.80;43.50;;;;;;5070687;28;20522;-63
2023/09/21 05:17:27;;;;;;;20.85;6.05;;;26.70;43.60;;;;;;5067128;28;20058;-61
2023/09/21 05:19:53;;;;;;;18.35;5.65;;;26.90;44.20;;;;;;5069033;28;20520;-59
2023/09/21 05:22:20;;;;;;;22.58;6.10;;;27.00;43.60;;;;;;5067156;28;20060;-60
2023/09/21 05:24:47;;;;;;;19.08;5.68;;;27.30;44.00;;;;;;5069897;28;20507;-61
2023/09/21 05:27:14;;;;;;;15.60;5.53;;;27.30;43.10;;;;;;5062741;28;20437;-62
2023/09/21 05:29:40;;;;;;;17.33;5.65;;;27.20;43.90;;;;;;5064350;28;20043;-62
2023/09/21 05:32:07;;;;;;;12.48;5.25;;;27.10;44.70;;;;;;5055739;28;20169;-61
2023/09/21 05:34:34;;;;;;;21.02;6.40;;;27.20;45.60;;;;;;5056640;28;20035;-64
2023/09/21 05:37:00;;;;;;;17.33;6.15;;;27.20;46.90;;;;;;5069948;28;20048;-61
2023/09/21 05:39:27;;;;;;;13.25;6.07;;;26.90;47.60;;;;;;5067500;28;20051;-62
2023/09/21 05:41:54;;;;;;;17.67;6.63;;;26.70;48.60;;;;;;5068736;28;20173;-61
2023/09/21 05:44:25;;;;;;;14.05;5.80;;;26.60;48.60;;;;;;5062934;28;20077;-60
2023/09/21 05:46:52;;;;;;;16.92;6.50;;;26.50;49.00;;;;;;5069503;28;21090;-62
2023/09/21 05:49:27;;;;;;;21.55;6.25;;;26.30;48.60;;;;;;5051560;28;20083;-61
2023/09/21 05:51:56;;;;;;;15.50;6.63;;;26.30;49.00;;;;;;5060924;28;20046;-62
2023/09/21 05:54:26;;;;;;;18.55;6.28;;;26.30;49.10;;;;;;5067074;28;20050;-65
2023/09/21 05:56:56;;;;;;;16.52;5.80;;;26.20;49.10;;;;;;5069751;28;20781;-64
2023/09/21 05:59:24;;;;;;;27.23;6.65;;;26.10;49.00;;;;;;5066198;28;20041;-63
2023/09/21 06:01:51;;;;;;;23.05;12.40;;;26.10;49.30;;;;;;5065346;28;20047;-62
2023/09/21 06:04:21;;;;;;;18.73;10.98;;;26.00;49.50;;;;;;5063049;28;20087;-61
2023/09/21 06:06:48;;;;;;;19.50;11.52;;;25.90;50.40;;;;;;5067525;28;20044;-59
2023/09/21 06:09:19;;;;;;;16.25;6.90;;;25.80;51.00;;;;;;5064969;28;20115;-61
2023/09/21 06:11:48;;;;;;;19.52;6.47;;;25.80;50.80;;;;;;5068547;28;20074;-61
2023/09/21 06:14:17;;;;;;;12.57;6.72;;;25.70;51.00;;;;;;5067016;28;20041;-63
2023/09/21 06:16:44;;;;;;;21.98;6.75;;;25.50;51.30;;;;;;5064203;28;20599;-62
2023/09/21 06:19:11;;;;;;;12.85;6.00;;;25.40;51.20;;;;;;5065536;28;20509;-63
2023/09/21 06:21:41;;;;;;;17.42;6.65;;;25.40;51.30;;;;;;5062102;28;20061;-63
2023/09/21 06:24:12;;;;;;;18.00;6.75;;;25.40;51.20;;;;;;5064264;28;20164;-60
2023/09/21 06:26:38;;;;;;;15.40;6.65;;;25.30;51.10;;;;;;5060809;28;20406;-61
2023/09/21 06:29:05;;;;;;;19.88;6.65;;;25.30;51.00;;;;;;5066633;28;20491;-61
2023/09/21 06:31:32;;;;;;;23.98;7.40;;;25.20;51.00;;;;;;5067631;28;20048;-62
2023/09/21 06:33:58;;;;;;;15.00;6.93;;;25.20;51.20;;;;;;5062491;28;20563;-61
2023/09/21 06:36:28;;;;;;;15.13;6.40;;;25.20;51.60;;;;;;5068275;28;20052;-61
2023/09/21 06:38:55;;;;;;;16.67;6.20;;;25.10;51.60;;;;;;5059838;28;20525;-62
2023/09/21 06:41:22;;;;;;;31.55;7.57;;;25.00;52.20;;;;;;5064465;28;20045;-62
2023/09/21 06:43:50;;;;;;;16.30;6.45;;;25.10;52.30;;;;;;5067912;28;20069;-62
2023/09/21 06:46:18;;;;;;;20.92;6.57;;;25.10;52.50;;;;;;5068510;28;20049;-61
2023/09/21 06:48:45;;;;;;;23.55;7.03;;;25.00;52.20;;;;;;5067379;28;20048;-62
2023/09/21 06:51:12;;;;;;;25.20;7.72;;;24.90;52.80;;;;;;5066892;28;20566;-64
2023/09/21 06:53:39;;;;;;;28.88;8.00;;;24.90;53.00;;;;;;5068024;28;20103;-62
2023/09/21 06:56:05;;;;;;;41.53;7.40;;;24.80;52.30;;;;;;5064295;28;20077;-64
2023/09/21 06:58:32;;;;;;;40.30;7.35;;;24.80;52.30;;;;;;5059319;28;20060;-63
2023/09/21 07:00:59;;;;;;;32.28;7.00;;;24.80;51.50;;;;;;5063243;28;20716;-63
2023/09/21 07:03:26;;;;;;;30.20;7.28;;;24.70;51.10;;;;;;5068452;28;20057;-62
2023/09/21 07:05:53;;;;;;;25.65;7.55;;;24.80;50.70;;;;;;5066225;28;20048;-63
2023/09/21 07:08:20;;;;;;;25.63;7.22;;;24.80;50.50;;;;;;5064380;28;20041;-62
2023/09/21 07:10:49;;;;;;;25.70;6.45;;;24.70;50.40;;;;;;5068093;28;20053;-61
2023/09/21 07:13:19;;;;;;;21.23;6.75;;;24.70;50.50;;;;;;5067762;28;20058;-62
2023/09/21 07:15:45;;;;;;;20.02;6.55;;;24.60;50.70;;;;;;5067433;28;20060;-62
2023/09/21 07:18:12;;;;;;;22.73;6.78;;;24.50;50.80;;;;;;5067949;28;20052;-63
2023/09/21 07:20:39;;;;;;;22.70;6.88;;;24.60;51.00;;;;;;5065349;28;20425;-62
2023/09/21 07:23:05;;;;;;;27.88;7.30;;;24.60;50.80;;;;;;5064341;28;20113;-62
2023/09/21 07:25:32;;;;;;;17.40;6.28;;;24.60;51.10;;;;;;5063384;28;20115;-63
2023/09/21 07:27:58;;;;;;;26.70;6.80;;;24.40;51.10;;;;;;5064748;28;20382;-61
2023/09/21 07:30:32;;;;;;;16.15;6.90;;;24.50;51.00;;;;;;5067342;28;20054;-61
2023/09/21 07:33:00;;;;;;;16.52;6.53;;;24.50;51.00;;;;;;5067883;28;20135;-60
2023/09/21 07:35:27;;;;;;;25.45;6.68;;;24.50;51.00;;;;;;5066766;28;21528;-60
2023/09/21 07:37:54;;;;;;;15.45;6.53;;;24.40;51.10;;;;;;5067625;28;20041;-61
2023/09/21 07:40:21;;;;;;;16.08;6.40;;;24.30;51.90;;;;;;5066450;28;20541;-62
2023/09/21 07:42:51;;;;;;;16.48;6.70;;;24.30;52.10;;;;;;5046290;28;21610;-61
2023/09/21 07:45:18;;;;;;;22.85;7.40;;;24.20;52.50;;;;;;5064385;28;20048;-62
2023/09/21 07:47:45;;;;;;;15.85;6.75;;;24.10;52.80;;;;;;5064331;28;20048;-63
2023/09/21 07:50:12;;;;;;;19.15;7.53;;;24.10;53.20;;;;;;5065063;28;20043;-63
2023/09/21 07:52:39;;;;;;;21.58;7.97;;;24.00;53.80;;;;;;5063207;28;20051;-60
2023/09/21 07:55:07;;;;;;;18.55;7.88;;;24.00;54.20;;;;;;5063017;28;20408;-61
2023/09/21 07:57:37;;;;;;;21.60;7.80;;;24.00;54.80;;;;;;5059213;28;20138;-62
2023/09/21 08:00:05;;;;;;;20.58;7.68;;;24.00;54.60;;;;;;5062765;28;20456;-62
2023/09/21 08:02:32;;;;;;;17.13;7.72;;;23.90;54.90;;;;;;5058332;28;20065;-64
2023/09/21 08:04:59;;;;;;;18.35;8.18;;;23.90;55.10;;;;;;5066445;28;20043;-64
2023/09/21 08:07:28;;;;;;;24.15;8.38;;;23.80;55.80;;;;;;5065812;28;20052;-63
2023/09/21 08:09:55;;;;;;;22.08;7.65;;;23.80;54.80;;;;;;5063213;28;20045;-62
2023/09/21 08:12:24;;;;;;;19.65;7.78;;;23.90;55.10;;;;;;5064860;28;20057;-62
2023/09/21 08:18:12;;;;;;;18.45;7.45;;;23.80;55.90;;;;;;5059325;28;20052;-62
2023/09/21 08:20:42;;;;;;;27.80;8.38;;;23.70;55.50;;;;;;5063336;28;20074;-60
2023/09/21 08:23:09;;;;;;;20.08;8.32;;;23.70;55.40;;;;;;5065515;28;20069;-62
2023/09/21 08:25:37;;;;;;;16.52;7.47;;;23.70;55.90;;;;;;5066142;28;20142;-65
2023/09/21 08:28:04;;;;;;;16.23;7.05;;;23.70;55.80;;;;;;5066158;28;20419;-62
2023/09/21 08:30:31;;;;;;;23.48;7.88;;;23.60;56.20;;;;;;5066300;28;20072;-62
2023/09/21 08:32:59;;;;;;;11.70;6.95;;;23.60;56.10;;;;;;5059007;28;20122;-61
2023/09/21 08:35:26;;;;;;;16.20;7.75;;;23.50;56.80;;;;;;5063408;28;20135;-63
2023/09/21 08:37:53;;;;;;;20.15;7.68;;;23.40;56.80;;;;;;5063658;28;20058;-63
2023/09/21 08:40:23;;;;;;;14.20;7.00;;;23.20;56.80;;;;;;5065920;28;20094;-62
2023/09/21 08:42:55;;;;;;;12.93;7.07;;;23.30;56.90;;;;;;5064909;28;20060;-62
2023/09/21 08:45:23;;;;;;;24.67;7.82;;;23.30;57.30;;;;;;5063643;28;20064;-62
2023/09/21 08:47:51;;;;;;;14.38;6.68;;;23.30;57.50;;;;;;5065642;28;20249;-61
2023/09/21 08:50:18;;;;;;;21.45;7.18;;;23.20;57.20;;;;;;5064085;28;20117;-61
2023/09/21 08:52:45;;;;;;;22.45;8.43;;;23.20;57.50;;;;;;5062545;28;20082;-62
2023/09/21 08:55:16;;;;;;;15.45;7.07;;;23.20;57.40;;;;;;5062824;28;20056;-62
2023/09/21 08:57:43;;;;;;;14.70;7.47;;;23.20;57.20;;;;;;5061508;28;20075;-61
2023/09/21 09:00:10;;;;;;;14.80;6.85;;;23.10;57.10;;;;;;5063617;28;20065;-63
2023/09/21 09:02:37;;;;;;;18.05;7.70;;;23.10;57.10;;;;;;5059294;28;20729;-64
2023/09/21 09:05:08;;;;;;;15.20;6.28;;;23.10;56.90;;;;;;5065727;28;20505;-63
2023/09/21 09:07:42;;;;;;;16.00;7.30;;;23.10;57.30;;;;;;5061295;28;20069;-61
2023/09/21 09:10:13;;;;;;;13.60;7.43;;;23.00;57.60;;;;;;5059121;28;20108;-60
2023/09/21 09:12:41;;;;;;;21.10;7.30;;;22.90;57.80;;;;;;5062019;28;20136;-60
2023/09/21 09:15:09;;;;;;;17.02;6.95;;;22.90;57.60;;;;;;5058434;28;20087;-61
2023/09/21 09:17:36;;;;;;;16.02;7.13;;;23.00;57.80;;;;;;5060249;28;20049;-62
2023/09/21 09:20:05;;;;;;;14.40;7.05;;;22.90;57.80;;;;;;5058032;28;20057;-61
2023/09/21 09:22:38;;;;;;;13.65;7.70;;;22.90;58.10;;;;;;5064997;28;20575;-62
2023/09/21 09:25:05;;;;;;;19.98;7.25;;;22.80;58.10;;;;;;5064891;28;20068;-61
2023/09/21 09:27:33;;;;;;;14.07;6.97;;;22.70;58.50;;;;;;5062373;28;20054;-62
2023/09/21 09:30:00;;;;;;;19.73;7.05;;;22.60;58.40;;;;;;5050214;28;20170;-60
2023/09/21 09:32:40;;;;;;;17.92;7.18;;;22.50;58.50;;;;;;5061702;28;20075;-61
2023/09/21 09:35:15;;;;;;;18.98;7.18;;;22.60;58.30;;;;;;5063898;28;20089;-60
2023/09/21 09:37:42;;;;;;;16.52;7.15;;;22.60;58.30;;;;;;5065517;28;20078;-61
2023/09/21 09:40:12;;;;;;;13.15;7.25;;;22.50;58.40;;;;;;5063460;28;20112;-60
2023/09/21 09:42:48;;;;;;;15.80;7.25;;;22.60;58.90;;;;;;5062102;28;20080;-60
2023/09/21 09:45:34;;;;;;;18.40;7.28;;;22.60;58.60;;;;;;5061367;28;20080;-62
2023/09/21 09:48:03;;;;;;;18.80;6.93;;;22.50;58.30;;;;;;5062829;28;20076;-61
2023/09/21 09:50:33;;;;;;;15.75;6.95;;;22.60;58.70;;;;;;5048898;28;20521;-61
2023/09/21 09:53:19;;;;;;;16.58;7.97;;;22.60;59.10;;;;;;5061752;28;20525;-60
2023/09/21 09:55:47;;;;;;;14.82;6.60;;;22.60;58.90;;;;;;5068069;28;20414;-61
2023/09/21 09:58:15;;;;;;;16.27;6.65;;;22.60;58.60;;;;;;5069095;28;20516;-59
2023/09/21 10:00:44;;;;;;;13.93;6.97;;;22.50;58.30;;;;;;5056048;28;20049;-60
2023/09/21 10:03:12;;;;;;;12.75;6.57;;;22.50;58.20;;;;;;5069551;28;20079;-61
2023/09/21 10:05:39;;;;;;;17.85;7.20;;;22.50;58.30;;;;;;5066183;28;20052;-58
2023/09/21 10:08:10;;;;;;;17.02;7.60;;;22.50;57.90;;;;;;5068676;28;20058;-60
2023/09/21 10:10:56;;;;;;;20.48;7.07;;;22.40;58.10;;;;;;5066555;28;20054;-62
2023/09/21 10:13:26;;;;;;;12.90;6.50;;;22.40;58.20;;;;;;5068131;28;20079;-61
2023/09/21 10:16:04;;;;;;;23.48;8.02;;;22.50;57.60;;;;;;5062791;28;20155;-59
2023/09/21 10:18:35;;;;;;;20.17;6.97;;;22.40;57.60;;;;;;5061649;28;20060;-60
2023/09/21 10:21:29;;;;;;;20.90;7.28;;;22.40;57.60;;;;;;5068814;28;20053;-60
2023/09/21 10:24:17;;;;;;;18.55;7.00;;;22.50;57.60;;;;;;5054461;28;20087;-64
2023/09/21 10:26:49;;;;;;;16.85;6.65;;;22.50;57.00;;;;;;5069529;28;20057;-61
2023/09/21 10:29:20;;;;;;;18.58;6.43;;;22.50;56.70;;;;;;5061625;28;20049;-62
2023/09/21 10:31:55;;;;;;;16.52;7.15;;;22.60;56.70;;;;;;5063727;28;20062;-62
2023/09/21 10:34:25;;;;;;;16.67;6.95;;;22.50;56.60;;;;;;5067526;28;20411;-61
2023/09/21 10:36:57;;;;;;;15.85;6.35;;;22.40;57.60;;;;;;5067740;28;20051;-63
2023/09/21 10:39:25;;;;;;;15.15;7.05;;;22.40;57.60;;;;;;5062079;28;20052;-60
2023/09/21 10:41:53;;;;;;;19.48;7.10;;;22.30;58.40;;;;;;5061670;28;20527;-61
2023/09/21 10:45:07;;;;;;;25.20;6.13;;;22.30;57.50;;;;;;5067483;28;20076;-61
2023/09/21 10:47:51;;;;;;;15.70;6.43;;;22.30;58.30;;;;;;5067980;28;20061;-60
2023/09/21 10:50:20;;;;;;;14.90;6.68;;;22.30;58.20;;;;;;5067842;28;20190;-60
2023/09/21 10:52:55;;;;;;;13.88;6.70;;;22.20;58.00;;;;;;5062536;28;20058;-61
2023/09/21 10:55:22;;;;;;;13.60;6.75;;;22.20;58.10;;;;;;5066779;28;20062;-61
2023/09/21 10:57:49;;;;;;;15.60;6.68;;;22.30;58.40;;;;;;5063887;28;20556;-61
2023/09/21 11:00:21;;;;;;;16.17;6.13;;;22.20;58.40;;;;;;5067616;28;20060;-61
2023/09/21 11:02:49;;;;;;;15.52;7.03;;;22.20;58.60;;;;;;5063063;28;20070;-61
2023/09/21 11:05:17;;;;;;;18.55;6.78;;;22.20;58.60;;;;;;5064712;28;20419;-61
2023/09/21 11:07:48;;;;;;;16.27;6.63;;;22.10;58.70;;;;;;5061392;28;20044;-60
2023/09/21 11:10:16;;;;;;;22.20;7.22;;;22.10;58.70;;;;;;5064314;28;20052;-60
2023/09/21 11:12:44;;;;;;;16.33;7.60;;;22.20;58.70;;;;;;5063883;28;20057;-61
2023/09/21 11:15:16;;;;;;;16.48;7.30;;;22.00;59.40;;;;;;5068747;28;20052;-60
2023/09/21 11:17:44;;;;;;;15.90;7.20;;;22.00;59.20;;;;;;5068764;28;20153;-60
2023/09/21 11:20:19;;;;;;;11.70;6.63;;;22.10;59.10;;;;;;5067525;28;20059;-60
2023/09/21 11:22:48;;;;;;;14.43;7.07;;;22.00;60.00;;;;;;5066829;28;20474;-61
2023/09/21 11:25:20;;;;;;;12.32;6.57;;;21.90;60.20;;;;;;5050007;28;20130;-61
2023/09/21 11:27:46;;;;;;;16.10;6.78;;;21.90;59.80;;;;;;5065813;28;20047;-61
2023/09/21 11:30:14;;;;;;;25.67;7.43;;;21.90;60.00;;;;;;5065708;28;20067;-61
2023/09/21 11:32:44;;;;;;;12.45;6.53;;;21.90;59.90;;;;;;5059218;28;20058;-61
2023/09/21 11:35:10;;;;;;;14.57;6.47;;;21.70;60.80;;;;;;5065774;28;20057;-60
2023/09/21 11:37:37;;;;;;;18.77;6.93;;;21.70;60.70;;;;;;5067152;28;20062;-61
2023/09/21 11:40:23;;;;;;;16.85;6.80;;;21.70;60.50;;;;;;5063062;28;20068;-61
2023/09/21 11:42:50;;;;;;;13.50;6.75;;;21.60;60.40;;;;;;5062823;28;20071;-61
2023/09/21 11:45:21;;;;;;;17.20;7.22;;;21.60;60.50;;;;;;5065742;28;20051;-61
2023/09/21 11:47:58;;;;;;;14.80;7.30;;;21.60;60.80;;;;;;5059662;28;20492;-61
2023/09/21 11:50:27;;;;;;;13.98;7.28;;;21.60;61.20;;;;;;5056315;28;20052;-60
2023/09/21 11:52:54;;;;;;;20.77;7.30;;;21.60;61.20;;;;;;5046559;28;20411;-60
2023/09/21 11:55:30;;;;;;;11.85;7.10;;;21.40;61.90;;;;;;5063978;28;20065;-61
2023/09/21 11:58:09;;;;;;;19.23;7.72;;;21.50;61.90;;;;;;5064678;28;20431;-61
2023/09/21 12:00:43;;;;;;;15.65;7.40;;;21.50;61.80;;;;;;5056146;28;20054;-60
2023/09/21 12:03:14;;;;;;;14.73;7.45;;;21.40;61.60;;;;;;5067680;28;20075;-63
2023/09/21 12:05:40;;;;;;;21.77;8.05;;;21.40;62.40;;;;;;5056654;28;20409;-62
2023/09/21 12:08:07;;;;;;;17.88;7.50;;;21.20;63.60;;;;;;5065308;28;20049;-61
2023/09/21 12:10:35;;;;;;;21.00;7.55;;;21.30;62.40;;;;;;5066043;28;20055;-62
2023/09/21 12:13:03;;;;;;;18.83;7.88;;;21.20;62.50;;;;;;5047511;28;20151;-61
2023/09/21 12:15:30;;;;;;;27.15;9.02;;;21.10;62.70;;;;;;5065971;28;20142;-61
2023/09/21 12:17:56;;;;;;;24.58;8.68;;;21.10;63.00;;;;;;5055425;28;20130;-61
2023/09/21 12:20:23;;;;;;;24.42;8.85;;;21.20;62.90;;;;;;5065560;28;20051;-62
2023/09/21 12:22:50;;;;;;;23.25;8.65;;;21.10;62.60;;;;;;5062059;28;20424;-61
2023/09/21 12:25:17;;;;;;;20.50;8.43;;;21.20;63.10;;;;;;5064177;28;20115;-62
2023/09/21 12:27:43;;;;;;;31.48;10.13;;;21.10;63.40;;;;;;5065156;28;20061;-61
2023/09/21 12:30:12;;;;;;;24.90;8.85;;;21.10;64.20;;;;;;5064799;28;20139;-61
2023/09/21 12:32:40;;;;;;;23.92;9.10;;;21.20;63.50;;;;;;5067147;28;20066;-61
2023/09/21 12:35:11;;;;;;;32.30;9.98;;;21.10;64.10;;;;;;5066902;28;20178;-62
2023/09/21 12:37:42;;;;;;;26.95;8.95;;;21.10;63.40;;;;;;5064500;28;20505;-61
2023/09/21 12:40:13;;;;;;;26.25;9.15;;;21.00;64.00;;;;;;5059196;28;20469;-61
2023/09/21 12:42:43;;;;;;;31.27;9.32;;;20.90;64.40;;;;;;5059363;28;20108;-61
2023/09/21 12:45:16;;;;;;;20.45;9.52;;;20.90;64.30;;;;;;5057724;28;20047;-61
2023/09/21 12:47:46;;;;;;;23.40;9.65;;;21.00;64.10;;;;;;5060815;28;20067;-59
2023/09/21 12:50:14;;;;;;;27.38;9.63;;;21.00;64.20;;;;;;5053300;28;20051;-61
2023/09/21 12:52:42;;;;;;;37.03;10.80;;;21.00;63.70;;;;;;5043108;28;20087;-62